M I D A S
Marine Information and Data Acquisition System
Tripno 2330 of the Zeeleeuw from 2012-06-15 05:49:47 to 2012-06-15 12:38:19
Back to CruiseResearch ActivitiesStationsMapUnderway DataData graphs

EquipmentUnitsComment
TimeDGPSUTC
LatitudeDGPSDM.mWGS84
LongitudeDGPSDM.mWGS84
HeadingGyrodeg 
SOGDGPSknotsSpeed over ground
COGDGPSdegCourse over ground
DepthEcho soundermeters200 kHz
Missing or incorrect values are displayed as -999
Navigation data collected by the RV Zeeleeuw from 2012-06-15 05:20:34 to 2012-06-15 12:57:41
Time Latitude Longitude Heading SOG COG Depth
2012-06-15 05:21:38 51°13.632 2°56.013 126.9 0.1 225 -999
2012-06-15 05:22:37 51°13.632 2°56.013 126.9 0.1 113 8
2012-06-15 05:23:39 51°13.632 2°56.015 126.9 0.1 231 -999
2012-06-15 05:24:39 51°13.632 2°56.016 127 -999 255 8
2012-06-15 05:25:39 51°13.633 2°56.014 127.1 0.1 2 -999
2012-06-15 05:26:39 51°13.632 2°56.014 127.8 0.1 237 -999
2012-06-15 05:27:39 51°13.632 2°56.014 127.8 0.1 345 -999
2012-06-15 05:28:38 51°13.632 2°56.014 127.8 0.1 333 -999
2012-06-15 05:29:39 51°13.632 2°56.015 127.8 -999 148 -999
2012-06-15 05:30:38 51°13.631 2°56.015 127.8 0.2 204 -999
2012-06-15 05:31:37 51°13.632 2°56.015 127.9 0.1 157 8.2
2012-06-15 05:32:38 51°13.632 2°56.015 127.9 0.1 334 8
2012-06-15 05:33:39 51°13.632 2°56.014 127.9 0.1 194 -999
2012-06-15 05:34:37 51°13.632 2°56.015 128 0.1 175 8.2
2012-06-15 05:35:37 51°13.631 2°56.016 128 0.1 80 -999
2012-06-15 05:36:38 51°13.633 2°56.015 128 0.1 -999 -999
2012-06-15 05:37:38 51°13.633 2°56.014 127.9 0.2 27 -999
2012-06-15 05:38:38 51°13.632 2°56.014 118.9 -999 80 8.5
2012-06-15 05:39:39 51°13.633 2°55.999 105.5 2.2 280 -999
2012-06-15 05:40:38 51°13.651 2°55.912 112.2 4 290 -999
2012-06-15 05:41:39 51°13.684 2°55.818 137.5 4.5 314 -999
2012-06-15 05:42:38 51°13.737 2°55.748 144 4.1 322 -999
2012-06-15 05:43:39 51°13.8 2°55.674 150.4 4.9 328 -999
2012-06-15 05:44:38 51°13.87 2°55.616 159.8 4.3 336 -999
2012-06-15 05:45:38 51°13.93 2°55.599 192.4 3.3 6 -999
2012-06-15 05:46:38 51°13.968 2°55.617 230 0.9 11 -999
2012-06-15 05:47:39 51°13.995 2°55.548 318.9 5.7 320 -999
2012-06-15 05:48:38 51°14.098 2°55.449 333 8.6 331 -999
2012-06-15 05:49:38 51°14.235 2°55.326 333.3 9.9 331 -999
2012-06-15 05:50:38 51°14.384 2°55.185 329.9 10.9 327 -999
2012-06-15 05:51:37 51°14.538 2°55.025 330.3 11.4 324 11.2
2012-06-15 05:52:37 51°14.709 2°54.899 342.7 11.5 335 11.1
2012-06-15 05:53:35 51°14.858 2°54.71 320.6 12.3 314 10.9
2012-06-15 05:54:35 51°14.979 2°54.453 309 12 305 11.6
2012-06-15 05:55:34 51°15.111 2°54.224 320.9 11.9 315 9.4
2012-06-15 05:56:34 51°15.259 2°54.017 329.1 11.9 324 9.9
2012-06-15 05:57:34 51°15.43 2°53.856 336.5 11.9 330 11.5
2012-06-15 05:58:35 51°15.602 2°53.687 332.4 11.9 330 11.7
2012-06-15 05:59:35 51°15.769 2°53.514 333.4 12 328 12.3
2012-06-15 06:00:35 51°15.941 2°53.36 339 11.9 333 12.7
2012-06-15 06:01:35 51°16.115 2°53.207 337.5 12 332 12.6
2012-06-15 06:02:35 51°16.289 2°53.048 335 12 330 12.7
2012-06-15 06:03:35 51°16.458 2°52.885 333.9 11.7 330 12.1
2012-06-15 06:04:35 51°16.635 2°52.75 337.6 11.8 333 12.2
2012-06-15 06:05:35 51°16.807 2°52.611 337.8 11.6 335 10.5
2012-06-15 06:06:35 51°16.982 2°52.49 344.1 11.4 343 10
2012-06-15 06:07:35 51°17.166 2°52.414 349.9 11.5 347 10.6
2012-06-15 06:08:35 51°17.355 2°52.379 0.8 11.6 359 11.1
2012-06-15 06:09:35 51°17.545 2°52.357 358.8 11.6 355 11
2012-06-15 06:10:35 51°17.733 2°52.321 355 11.4 349 10.9
2012-06-15 06:11:35 51°17.921 2°52.261 352.5 11.6 350 11.5
2012-06-15 06:12:35 51°18.11 2°52.203 350.7 11.5 347 12.1
2012-06-15 06:13:35 51°18.3 2°52.146 356.5 11.7 353 12.3
2012-06-15 06:14:35 51°18.492 2°52.101 353.1 11.7 348 12.6
2012-06-15 06:15:35 51°18.682 2°52.049 358.2 11.7 354 13.2
2012-06-15 06:16:35 51°18.877 2°52.012 357.3 11.8 352 14.1
2012-06-15 06:17:35 51°19.068 2°51.945 352.1 11.7 347 15.4
2012-06-15 06:18:35 51°19.261 2°51.884 354.8 11.7 351 15.9
2012-06-15 06:19:35 51°19.454 2°51.829 352 11.9 349 16.6
2012-06-15 06:20:35 51°19.646 2°51.774 352.2 11.8 347 16.6
2012-06-15 06:21:35 51°19.839 2°51.721 357.6 11.7 354 15.9
2012-06-15 06:22:35 51°20.035 2°51.69 359.7 11.9 357 15.3
2012-06-15 06:23:35 51°20.231 2°51.673 2.2 11.8 359 14.6
2012-06-15 06:24:35 51°20.426 2°51.654 357.8 11.8 355 14.6
2012-06-15 06:25:35 51°20.623 2°51.639 -999 11.9 358 15.7
2012-06-15 06:26:35 51°20.817 2°51.607 355 11.8 351 17.1
2012-06-15 06:27:35 51°21.012 2°51.57 357.9 11.8 355 18.7
2012-06-15 06:28:35 51°21.21 2°51.551 1.2 12 358 21.5
2012-06-15 06:29:35 51°21.408 2°51.546 4.2 12 359 23.2
2012-06-15 06:30:35 51°21.608 2°51.524 357.3 12.1 354 24.5
2012-06-15 06:31:35 51°21.807 2°51.493 357.6 11.9 355 24.8
2012-06-15 06:32:35 51°22.009 2°51.481 1.2 12.1 -999 23.9
2012-06-15 06:33:35 51°22.206 2°51.457 356.3 11.8 353 24
2012-06-15 06:34:35 51°22.403 2°51.426 359.8 11.7 356 24.1
2012-06-15 06:35:35 51°22.599 2°51.402 357.6 11.8 352 23.8
2012-06-15 06:36:35 51°22.796 2°51.381 2.1 11.9 359 23.7
2012-06-15 06:37:35 51°22.994 2°51.352 359 12 354 22.7
2012-06-15 06:38:35 51°23.188 2°51.328 1.8 11.6 359 16.3
2012-06-15 06:39:35 51°23.378 2°51.305 356.9 11.3 351 16
2012-06-15 06:40:35 51°23.568 2°51.266 356.1 11.6 353 17.5
2012-06-15 06:41:35 51°23.76 2°51.245 2.5 11.7 358 19.5
2012-06-15 06:42:35 51°23.954 2°51.236 0.1 11.8 356 21.3
2012-06-15 06:43:35 51°24.148 2°51.217 358.6 11.7 357 21
2012-06-15 06:44:35 51°24.345 2°51.204 359.3 11.8 358 22.9
2012-06-15 06:45:35 51°24.542 2°51.192 359 11.8 357 22.9
2012-06-15 06:46:35 51°24.736 2°51.156 357.1 11.7 355 23.7
2012-06-15 06:47:35 51°24.932 2°51.136 358.9 11.9 356 24
2012-06-15 06:48:35 51°25.13 2°51.131 2.9 11.8 -999 23.8
2012-06-15 06:49:35 51°25.326 2°51.131 3.5 11.6 2 24.1
2012-06-15 06:50:35 51°25.523 2°51.154 6.6 12 5 23.9
2012-06-15 06:51:35 51°25.723 2°51.184 7.3 12.1 4 24.6
2012-06-15 06:52:35 51°25.925 2°51.19 1.8 12.2 -999 24.9
2012-06-15 06:53:35 51°26.126 2°51.195 3.6 12 2 24.2
2012-06-15 06:54:35 51°26.325 2°51.208 4.8 12.1 2 26
2012-06-15 06:55:35 51°26.526 2°51.211 1.4 12 -999 27.9
2012-06-15 06:56:35 51°26.727 2°51.234 6.7 12.1 5 25.5
2012-06-15 06:57:35 51°26.927 2°51.259 3.7 12 1 25.1
2012-06-15 06:58:35 51°27.124 2°51.263 3.6 11.7 2 21.9
2012-06-15 06:59:35 51°27.32 2°51.273 4.6 11.7 2 21.3
2012-06-15 07:00:35 51°27.515 2°51.288 2.2 11.9 359 21.6
2012-06-15 07:01:35 51°27.708 2°51.257 349.1 11.7 346 23.8
2012-06-15 07:02:35 51°27.896 2°51.169 346.3 11.9 343 25.4
2012-06-15 07:03:35 51°28.087 2°51.088 347.5 11.8 345 27.3
2012-06-15 07:04:35 51°28.278 2°51.016 348.8 12 346 29
2012-06-15 07:05:35 51°28.473 2°50.952 350.9 11.9 349 28.5
2012-06-15 07:06:35 51°28.67 2°50.907 354.5 11.9 352 28.6
2012-06-15 07:07:35 51°28.867 2°50.866 356 11.9 355 28.2
2012-06-15 07:08:35 51°29.068 2°50.886 11.5 12.2 9 29.1
2012-06-15 07:09:35 51°29.265 2°50.953 12.8 12.1 12 29.8
2012-06-15 07:10:35 51°29.461 2°51.015 11.2 12 11 29.2
2012-06-15 07:11:35 51°29.659 2°51.059 9.1 12.1 7 31.5
2012-06-15 07:12:35 51°29.859 2°51.09 8.5 12.1 10 31.7
2012-06-15 07:13:35 51°30.055 2°51.146 12.5 11.9 12 26.7
2012-06-15 07:14:35 51°30.249 2°51.23 16.6 11.9 15 25.9
2012-06-15 07:15:35 51°30.439 2°51.31 16.2 11.7 14 22.1
2012-06-15 07:16:35 51°30.63 2°51.375 12.8 11.9 11 21.9
2012-06-15 07:17:35 51°30.823 2°51.443 14.1 11.8 13 23.1
2012-06-15 07:18:35 51°31.016 2°51.499 10.6 11.8 9 22.5
2012-06-15 07:19:35 51°31.21 2°51.561 13.2 12 12 26.4
2012-06-15 07:20:35 51°31.404 2°51.629 13.9 11.9 14 25
2012-06-15 07:21:35 51°31.597 2°51.698 14.9 12 13 24.3
2012-06-15 07:22:35 51°31.792 2°51.77 14.7 12.1 12 27.3
2012-06-15 07:23:35 51°31.989 2°51.824 9 11.9 8 29.6
2012-06-15 07:24:35 51°32.187 2°51.883 14.6 12.2 11 30.2
2012-06-15 07:25:35 51°32.384 2°51.955 13.8 12 12 28.6
2012-06-15 07:26:35 51°32.581 2°52.036 15.8 12.4 15 31
2012-06-15 07:27:35 51°32.78 2°52.114 15.6 12.3 17 31
2012-06-15 07:28:35 51°32.954 2°52.281 39.2 12.5 38 32.2
2012-06-15 07:29:35 51°33.1 2°52.515 50.5 12.4 47 29.8
2012-06-15 07:30:35 51°33.234 2°52.764 51.9 12.4 49 32
2012-06-15 07:31:35 51°33.369 2°53.016 52.3 12.6 51 31.3
2012-06-15 07:32:35 51°33.498 2°53.273 54.5 12.4 52 30.7
2012-06-15 07:33:35 51°33.621 2°53.54 56 12.4 52 30.5
2012-06-15 07:34:35 51°33.742 2°53.813 60.6 12.5 58 32
2012-06-15 07:35:35 51°33.838 2°54.108 67.4 12.4 67 31.7
2012-06-15 07:36:35 51°33.876 2°54.428 90.8 12.1 90 31.2
2012-06-15 07:37:35 51°33.828 2°54.738 119 11.9 117 30.4
2012-06-15 07:38:35 51°33.716 2°55.005 130.1 11.9 127 29.7
2012-06-15 07:39:35 51°33.598 2°55.265 125.7 12 116 29.4
2012-06-15 07:40:35 51°33.526 2°55.524 114.6 9.7 110 27.9
2012-06-15 07:41:35 51°33.48 2°55.753 111.4 8.3 107 27.2
2012-06-15 07:42:35 51°33.444 2°55.947 113.1 7.3 107 28.3
2012-06-15 07:43:35 51°33.402 2°56.121 117.8 6.6 115 27.2
2012-06-15 07:44:35 51°33.333 2°56.165 204.4 3.9 205 29
2012-06-15 07:45:35 51°33.312 2°56.111 265 1.7 274 27.3
2012-06-15 07:46:35 51°33.321 2°56.077 274.5 1.2 305 28.2
2012-06-15 07:47:35 51°33.331 2°56.06 270.8 0.7 324 27.6
2012-06-15 07:48:35 51°33.341 2°56.054 270.1 0.6 356 26.4
2012-06-15 07:49:35 51°33.354 2°56.053 274.1 0.8 359 27.1
2012-06-15 07:50:35 51°33.364 2°56.042 272.5 1 297 27.5
2012-06-15 07:51:35 51°33.375 2°56.026 269.4 0.8 326 27.2
2012-06-15 07:52:35 51°33.385 2°56.009 263.2 1 295 27.7
2012-06-15 07:53:35 51°33.38 2°55.978 225.4 1.7 220 27.2
2012-06-15 07:54:35 51°33.339 2°55.97 185.1 3.4 176 29.4
2012-06-15 07:55:35 51°33.278 2°55.964 194.6 3.8 187 28.6
2012-06-15 07:56:35 51°33.229 2°55.96 189.1 2.2 175 27.4
2012-06-15 07:57:35 51°33.204 2°55.973 177.6 1.3 148 26.5
2012-06-15 07:58:35 51°33.193 2°55.996 170.2 1 106 27.2
2012-06-15 07:59:35 51°33.193 2°56.022 158.6 1 83 27.8
2012-06-15 08:00:35 51°33.174 2°56.042 197.6 1.8 187 27.2
2012-06-15 08:01:35 51°33.164 2°56.016 260.1 1.2 288 26.7
2012-06-15 08:02:35 51°33.178 2°55.993 292.9 1.4 325 26.6
2012-06-15 08:03:35 51°33.204 2°55.969 302.4 2 328 26.8
2012-06-15 08:04:35 51°33.236 2°55.937 301.9 2.3 330 27.2
2012-06-15 08:05:35 51°33.265 2°55.91 300.4 1.8 341 27.4
2012-06-15 08:06:35 51°33.288 2°55.9 297.1 1.2 349 27.9
2012-06-15 08:07:35 51°33.307 2°55.899 294 1 4 28.2
2012-06-15 08:08:35 51°33.326 2°55.904 294.1 1.4 17 28.7
2012-06-15 08:09:35 51°33.343 2°55.911 284.6 1.1 1 28.8
2012-06-15 08:10:35 51°33.376 2°55.891 328.6 3.3 349 26.5
2012-06-15 08:11:35 51°33.436 2°55.939 54.4 4.7 57 28.6
2012-06-15 08:12:35 51°33.45 2°56.033 103.2 3.1 91 28.3
2012-06-15 08:13:35 51°33.438 2°56.105 146.2 2.6 121 29
2012-06-15 08:14:35 51°33.393 2°56.123 196.9 3.6 189 27.6
2012-06-15 08:15:35 51°33.321 2°56.089 203.7 5 199 27.4
2012-06-15 08:16:35 51°33.254 2°56.053 204.6 3.7 200 28.8
2012-06-15 08:17:35 51°33.211 2°56.06 166.3 2 141 27.9
2012-06-15 08:18:35 51°33.199 2°56.104 140.3 1.8 100 28.6
2012-06-15 08:19:35 51°33.2 2°56.148 138.5 1.5 79 28.4
2012-06-15 08:20:35 51°33.205 2°56.184 141.3 1.3 71 28.6
2012-06-15 08:21:35 51°33.215 2°56.217 142.1 1.4 61 28.8
2012-06-15 08:22:35 51°33.228 2°56.248 135.3 1.3 50 28.1
2012-06-15 08:23:35 51°33.245 2°56.277 122.4 1.5 42 28.7
2012-06-15 08:24:35 51°33.263 2°56.303 111.2 1.5 45 29.6
2012-06-15 08:25:35 51°33.265 2°56.353 140 3 122 29.7
2012-06-15 08:26:35 51°33.226 2°56.368 213.5 2.2 211 29.3
2012-06-15 08:27:35 51°33.194 2°56.32 226.5 3 226 27.6
2012-06-15 08:28:35 51°33.167 2°56.274 222.2 1.8 231 27.1
2012-06-15 08:29:35 51°33.154 2°56.252 220.3 0.8 227 27.8
2012-06-15 08:30:35 51°33.151 2°56.246 216.6 0.2 242 28.2
2012-06-15 08:31:35 51°33.153 2°56.248 214.2 0.3 25 28.1
2012-06-15 08:32:35 51°33.158 2°56.255 211 0.5 46 27.1
2012-06-15 08:33:35 51°33.166 2°56.265 214.7 0.8 40 28
2012-06-15 08:34:35 51°33.177 2°56.274 225.3 0.9 19 27.8
2012-06-15 08:35:35 51°33.194 2°56.282 243.1 1.2 8 27.9
2012-06-15 08:36:35 51°33.215 2°56.291 261.4 1.5 16 27.7
2012-06-15 08:37:35 51°33.236 2°56.292 265 1.3 353 28.7
2012-06-15 08:38:35 51°33.255 2°56.286 255.4 1 344 28.8
2012-06-15 08:39:35 51°33.27 2°56.281 241.1 0.9 354 29.9
2012-06-15 08:40:35 51°33.28 2°56.281 224.4 0.4 15 30
2012-06-15 08:41:35 51°33.288 2°56.286 220.6 0.6 29 29.5
2012-06-15 08:42:35 51°33.296 2°56.294 217.6 0.6 17 29
2012-06-15 08:43:35 51°33.304 2°56.306 214.8 0.7 36 27.2
2012-06-15 08:44:35 51°33.296 2°56.297 221 1.9 223 29
2012-06-15 08:45:35 51°33.257 2°56.252 216.6 3.4 213 28.7
2012-06-15 08:46:35 51°33.21 2°56.201 218 2.9 220 28.1
2012-06-15 08:47:35 51°33.185 2°56.17 222.5 1.4 225 28.5
2012-06-15 08:48:35 51°33.174 2°56.155 222.1 0.5 212 28.6
2012-06-15 08:49:35 51°33.17 2°56.148 221.9 0.2 211 28.6
2012-06-15 08:50:35 51°33.169 2°56.147 219.6 0.2 19 28.5
2012-06-15 08:51:35 51°33.172 2°56.151 219.3 0.3 51 28.3
2012-06-15 08:52:35 51°33.178 2°56.157 221.8 0.6 16 28.5
2012-06-15 08:53:35 51°33.186 2°56.165 221.7 0.6 46 28.3
2012-06-15 08:54:35 51°33.193 2°56.171 221.9 0.2 52 28.3
2012-06-15 08:55:35 51°33.185 2°56.184 176.1 1.3 116 28.1
2012-06-15 08:56:35 51°33.182 2°56.232 126.9 2.3 79 28
2012-06-15 08:57:35 51°33.196 2°56.29 101.6 2.4 66 27.8
2012-06-15 08:58:35 51°33.213 2°56.346 99.5 2.2 65 29.4
2012-06-15 08:59:35 51°33.229 2°56.392 105.8 1.8 58 29.3
2012-06-15 09:00:35 51°33.248 2°56.426 112.6 1.6 43 28.6
2012-06-15 09:01:35 51°33.273 2°56.443 112.9 1.8 357 27.2
2012-06-15 09:02:37 51°33.3 2°56.435 88.3 1.5 344 28.8
2012-06-15 09:03:38 51°33.316 2°56.415 67.1 1 1 -999
2012-06-15 09:04:38 51°33.362 2°56.445 4.9 4.5 5 28.3
2012-06-15 09:05:36 51°33.437 2°56.378 310 7.1 319 29.8
2012-06-15 09:06:35 51°33.547 2°56.193 307.2 11.5 311 29.3
2012-06-15 09:07:35 51°33.683 2°55.963 310.5 12.1 315 28.2
2012-06-15 09:08:35 51°33.787 2°55.709 286.1 11.2 290 30
2012-06-15 09:09:35 51°33.839 2°55.421 279.7 11.2 285 30.6
2012-06-15 09:10:35 51°33.879 2°55.13 277.6 11.1 283 30.7
2012-06-15 09:11:35 51°33.925 2°54.843 279.4 11 284 30.4
2012-06-15 09:12:35 51°33.915 2°54.563 255.9 10.4 257 31.2
2012-06-15 09:13:35 51°33.878 2°54.289 255.6 10.6 262 30.5
2012-06-15 09:14:35 51°33.842 2°54.016 252.7 10.5 254 32.5
2012-06-15 09:15:35 51°33.786 2°53.751 246.2 10.4 253 32.6
2012-06-15 09:16:35 51°33.726 2°53.491 249.1 10.5 250 32.3
2012-06-15 09:17:35 51°33.672 2°53.226 250.3 10.3 250 34
2012-06-15 09:18:35 51°33.591 2°52.987 238 10.2 233 32.9
2012-06-15 09:19:35 51°33.498 2°52.757 238.2 10.4 237 33.3
2012-06-15 09:20:35 51°33.407 2°52.523 235.2 10.2 234 33.4
2012-06-15 09:21:35 51°33.266 2°52.373 208.4 10.4 200 33.3
2012-06-15 09:22:35 51°33.099 2°52.297 195.3 10.6 189 31.8
2012-06-15 09:23:35 51°32.922 2°52.268 189.1 10.7 182 31.4
2012-06-15 09:24:35 51°32.741 2°52.273 187.7 11 180 31.8
2012-06-15 09:25:35 51°32.561 2°52.268 187.7 10.8 184 29.8
2012-06-15 09:26:35 51°32.382 2°52.246 193.4 10.9 187 30.7
2012-06-15 09:27:35 51°32.203 2°52.213 192.3 10.8 183 28.6
2012-06-15 09:28:35 51°32.022 2°52.19 189.9 10.9 184 28.9
2012-06-15 09:29:35 51°31.842 2°52.178 190.8 10.8 182 27.5
2012-06-15 09:30:35 51°31.661 2°52.149 192.4 10.7 186 27
2012-06-15 09:31:35 51°31.48 2°52.116 193.2 11 188 26.1
2012-06-15 09:32:35 51°31.301 2°52.081 193.6 10.9 185 24.5
2012-06-15 09:33:35 51°31.12 2°52.047 191.3 10.8 185 22.7
2012-06-15 09:34:35 51°30.938 2°52.036 187.9 11.3 182 24.3
2012-06-15 09:35:35 51°30.756 2°52.036 187.1 10.8 180 22.2
2012-06-15 09:36:35 51°30.572 2°52.035 188.1 11 180 20.2
2012-06-15 09:37:35 51°30.39 2°52.02 189.6 11.1 184 24.1
2012-06-15 09:38:35 51°30.208 2°52.008 188 10.9 179 31.6
2012-06-15 09:39:35 51°30.025 2°52.029 183.1 11.1 179 32.8
2012-06-15 09:40:35 51°29.844 2°52.034 191 10.7 182 33
2012-06-15 09:41:35 51°29.662 2°52.022 189.8 10.7 180 31.9
2012-06-15 09:42:35 51°29.479 2°52.02 187.8 10.8 179 32.2
2012-06-15 09:43:35 51°29.299 2°52.025 186 10.8 178 33.2
2012-06-15 09:44:35 51°29.116 2°52.033 186.8 10.9 179 33.5
2012-06-15 09:45:35 51°28.937 2°52.018 193.1 10.6 187 32.2
2012-06-15 09:46:35 51°28.754 2°52.006 189.7 10.9 182 31.5
2012-06-15 09:47:35 51°28.572 2°51.99 191.3 11 185 30.2
2012-06-15 09:48:35 51°28.391 2°51.977 189.7 10.8 182 29.2
2012-06-15 09:49:35 51°28.21 2°51.971 186.2 10.9 179 27.8
2012-06-15 09:50:35 51°28.026 2°51.983 184.6 11 176 25.1
2012-06-15 09:51:35 51°27.844 2°51.988 187.5 10.8 181 23.6
2012-06-15 09:52:35 51°27.663 2°51.985 187.2 11.2 178 23.3
2012-06-15 09:53:35 51°27.483 2°51.984 190.1 10.7 182 22.5
2012-06-15 09:54:35 51°27.301 2°51.987 185.6 11.2 177 23.4
2012-06-15 09:55:35 51°27.119 2°51.988 188.8 10.9 181 21.7
2012-06-15 09:56:35 51°26.939 2°51.986 187.2 11 180 27.3
2012-06-15 09:57:35 51°26.755 2°51.975 191.9 11 186 28.2
2012-06-15 09:58:35 51°26.573 2°51.947 193.8 11 188 29.2
2012-06-15 09:59:35 51°26.39 2°51.917 191.3 10.8 184 27.3
2012-06-15 10:00:35 51°26.206 2°51.897 189.2 11.2 182 27.6
2012-06-15 10:01:35 51°26.022 2°51.895 187.4 11.2 178 28.9
2012-06-15 10:02:35 51°25.837 2°51.891 187.7 10.9 181 30.9
2012-06-15 10:03:35 51°25.656 2°51.879 189.8 11 182 33
2012-06-15 10:04:35 51°25.473 2°51.867 191.1 10.9 184 28.2
2012-06-15 10:05:35 51°25.293 2°51.836 193.4 11 186 25.6
2012-06-15 10:06:35 51°25.113 2°51.81 193.2 10.7 188 24.8
2012-06-15 10:07:35 51°24.931 2°51.791 187.7 11.1 181 24.5
2012-06-15 10:08:35 51°24.747 2°51.79 189.1 11 184 24.3
2012-06-15 10:09:35 51°24.566 2°51.754 191.8 11.1 186 24.1
2012-06-15 10:10:35 51°24.384 2°51.731 189.6 10.8 184 22.6
2012-06-15 10:11:35 51°24.2 2°51.715 188.3 11.2 186 21.7
2012-06-15 10:12:35 51°24.015 2°51.701 187.6 11.2 182 21.4
2012-06-15 10:13:35 51°23.831 2°51.66 194.7 10.9 192 20.3
2012-06-15 10:14:35 51°23.648 2°51.616 191.2 11.1 187 18.6
2012-06-15 10:15:35 51°23.464 2°51.589 192.2 11.2 184 16.9
2012-06-15 10:16:35 51°23.279 2°51.572 187.6 11.1 183 15.6
2012-06-15 10:17:35 51°23.095 2°51.544 191.2 11.3 189 21.3
2012-06-15 10:18:35 51°22.912 2°51.498 194.6 11.1 190 25
2012-06-15 10:19:35 51°22.729 2°51.466 192.4 11.1 188 25.4
2012-06-15 10:20:35 51°22.55 2°51.423 192.4 11.2 185 25.2
2012-06-15 10:21:35 51°22.366 2°51.4 189.1 11 185 25.6
2012-06-15 10:22:35 51°22.186 2°51.383 192.7 11 187 25.2
2012-06-15 10:23:35 51°22.01 2°51.342 194.1 10.9 186 26
2012-06-15 10:24:35 51°21.83 2°51.308 194.3 11 191 26.1
2012-06-15 10:25:35 51°21.651 2°51.272 194.7 10.7 187 26.1
2012-06-15 10:26:35 51°21.472 2°51.239 194.6 10.7 188 26
2012-06-15 10:27:35 51°21.293 2°51.198 193.2 10.9 187 25.2
2012-06-15 10:28:35 51°21.112 2°51.179 188.8 10.9 183 23.7
2012-06-15 10:29:35 51°20.929 2°51.172 187.3 11 181 21.8
2012-06-15 10:30:35 51°20.747 2°51.141 192.8 10.9 187 19.7
2012-06-15 10:31:35 51°20.564 2°51.111 191 11.1 186 18.6
2012-06-15 10:32:35 51°20.382 2°51.07 195 11 187 17.5
2012-06-15 10:33:35 51°20.199 2°51.035 190.3 11 184 16.2
2012-06-15 10:34:35 51°20.015 2°51.003 193.7 10.9 191 15.2
2012-06-15 10:35:35 51°19.833 2°50.946 195.1 10.9 190 14.5
2012-06-15 10:36:35 51°19.647 2°50.909 189.4 11 184 14.6
2012-06-15 10:37:35 51°19.463 2°50.864 196.4 11.1 195 16
2012-06-15 10:38:35 51°19.284 2°50.78 199.2 11.3 196 16.7
2012-06-15 10:39:35 51°19.101 2°50.71 195.5 11.2 190 16.6
2012-06-15 10:40:35 51°18.917 2°50.652 192.3 11.4 188 16.8
2012-06-15 10:41:35 51°18.732 2°50.609 193.1 11 191 16.7
2012-06-15 10:42:35 51°18.55 2°50.549 195.5 11 192 16.3
2012-06-15 10:43:35 51°18.369 2°50.487 194.7 11.4 193 16.3
2012-06-15 10:44:35 51°18.188 2°50.431 192.9 10.9 189 15.9
2012-06-15 10:45:35 51°18.009 2°50.363 195.5 11.1 193 15.6
2012-06-15 10:46:35 51°17.827 2°50.303 195.1 11.1 190 15.1
2012-06-15 10:47:35 51°17.647 2°50.227 196.2 11.3 194 14.8
2012-06-15 10:48:35 51°17.466 2°50.154 196.1 11.3 194 14
2012-06-15 10:49:35 51°17.281 2°50.109 189.9 11.4 188 13.2
2012-06-15 10:50:35 51°17.101 2°50.05 196.7 11.1 194 11.6
2012-06-15 10:51:35 51°16.924 2°49.982 199.1 10.7 198 12.1
2012-06-15 10:52:35 51°16.752 2°49.884 200.9 11 199 15.5
2012-06-15 10:53:35 51°16.575 2°49.795 201.5 11.2 199 15.6
2012-06-15 10:54:35 51°16.394 2°49.726 196.1 11.2 193 13.9
2012-06-15 10:55:35 51°16.215 2°49.641 199.7 11.3 197 13.6
2012-06-15 10:56:35 51°16.039 2°49.548 198.3 11.2 195 13.1
2012-06-15 10:57:35 51°15.854 2°49.482 194.9 11.5 192 12.7
2012-06-15 10:58:35 51°15.669 2°49.412 197.6 11.4 195 13.5
2012-06-15 10:59:35 51°15.493 2°49.332 201.9 9.2 196 15.1
2012-06-15 11:00:35 51°15.407 2°49.278 207.8 4.1 192 15.3
2012-06-15 11:01:35 51°15.356 2°49.306 150.7 3.2 129 15.4
2012-06-15 11:02:35 51°15.343 2°49.396 106.7 3.8 96 15.2
2012-06-15 11:03:35 51°15.326 2°49.496 129.1 3.9 115 15.1
2012-06-15 11:04:35 51°15.294 2°49.585 137 3.9 125 15.2
2012-06-15 11:05:35 51°15.253 2°49.664 147.2 3.9 135 15.2
2012-06-15 11:06:35 51°15.206 2°49.735 149.3 3.9 136 15
2012-06-15 11:07:35 51°15.161 2°49.818 139.2 4.3 126 15.2
2012-06-15 11:08:35 51°15.124 2°49.913 134.1 4.2 120 15
2012-06-15 11:09:35 51°15.09 2°50.012 132.2 4.2 121 15
2012-06-15 11:10:35 51°15.053 2°50.101 140.3 4 128 14.9
2012-06-15 11:11:35 51°15.012 2°50.185 144 3.9 130 14.7
2012-06-15 11:12:35 51°14.967 2°50.259 150.5 3.8 136 14.5
2012-06-15 11:13:35 51°14.92 2°50.328 154 3.8 138 14.5
2012-06-15 11:14:35 51°14.871 2°50.388 160.7 3.7 143 14.2
2012-06-15 11:15:35 51°14.825 2°50.456 147.4 4 129 13.9
2012-06-15 11:16:35 51°14.786 2°50.54 135.7 4.1 125 13.9
2012-06-15 11:17:35 51°14.749 2°50.63 136.8 4 125 13.6
2012-06-15 11:18:35 51°14.709 2°50.714 141.8 3.9 126 13.4
2012-06-15 11:19:35 51°14.665 2°50.792 149.1 3.9 138 13.3
2012-06-15 11:20:35 51°14.615 2°50.846 165.9 3.5 154 13
2012-06-15 11:21:35 51°14.561 2°50.884 173.1 3.6 158 12.4
2012-06-15 11:22:35 51°14.508 2°50.913 180.8 3.3 163 12.2
2012-06-15 11:23:35 51°14.453 2°50.934 181.1 3.5 168 11.9
2012-06-15 11:24:35 51°14.398 2°50.929 200.5 3.2 191 11.7
2012-06-15 11:25:35 51°14.346 2°50.906 208.3 3.3 198 11.4
2012-06-15 11:26:35 51°14.3 2°50.865 223.1 3.1 216 11.2
2012-06-15 11:27:35 51°14.268 2°50.799 244 3.2 245 11.2
2012-06-15 11:28:35 51°14.265 2°50.723 274.2 2.4 286 11
2012-06-15 11:29:35 51°14.284 2°50.675 289.5 2 311 11.4
2012-06-15 11:30:35 51°14.304 2°50.645 292 1.6 321 11.6
2012-06-15 11:31:35 51°14.335 2°50.612 321.3 3.1 337 11.8
2012-06-15 11:32:35 51°14.39 2°50.627 32 3.9 36 11.9
2012-06-15 11:33:35 51°14.412 2°50.723 100.8 4.3 93 11.9
2012-06-15 11:34:35 51°14.385 2°50.821 138.2 3.7 127 11.6
2012-06-15 11:35:35 51°14.344 2°50.887 155 3.4 141 11.4
2012-06-15 11:36:35 51°14.299 2°50.932 166.2 3.2 152 11.1
2012-06-15 11:37:35 51°14.254 2°50.961 184.6 2.8 168 10.8
2012-06-15 11:38:35 51°14.207 2°50.942 213.7 3.1 209 10.7
2012-06-15 11:39:35 51°14.162 2°50.892 224.5 3.2 222 10.4
2012-06-15 11:40:35 51°14.137 2°50.833 247.6 2.4 250 10.5
2012-06-15 11:41:35 51°14.126 2°50.772 249.8 2.5 252 10.6
2012-06-15 11:42:35 51°14.11 2°50.705 245.5 2.8 247 10.5
2012-06-15 11:43:35 51°14.089 2°50.637 240.3 2.9 241 10.5
2012-06-15 11:44:35 51°14.066 2°50.568 242.4 2.9 237 10.5
2012-06-15 11:45:35 51°14.044 2°50.498 244.4 3 241 10.4
2012-06-15 11:46:35 51°14.027 2°50.422 249 3.1 252 10.2
2012-06-15 11:47:35 51°14.01 2°50.345 247.2 3.1 253 10.1
2012-06-15 11:48:35 51°13.99 2°50.27 246.4 3 248 10.4
2012-06-15 11:49:35 51°13.971 2°50.195 245.9 3.1 247 10.3
2012-06-15 11:50:35 51°13.949 2°50.121 241.5 3.1 246 10.1
2012-06-15 11:51:35 51°13.926 2°50.048 243.2 3.1 246 10
2012-06-15 11:52:35 51°13.904 2°49.972 245.1 3.2 245 10.1
2012-06-15 11:53:35 51°13.885 2°49.895 246.9 3.1 250 9.9
2012-06-15 11:54:35 51°13.871 2°49.815 256 3.1 261 10
2012-06-15 11:55:35 51°13.869 2°49.73 265.8 3.3 271 10.3
2012-06-15 11:56:35 51°13.876 2°49.644 274.5 3.3 284 10.3
2012-06-15 11:57:35 51°13.902 2°49.563 296.6 3.6 305 10.4
2012-06-15 11:58:35 51°13.942 2°49.49 309.7 3.7 316 10.9
2012-06-15 11:59:35 51°13.995 2°49.446 335.3 3.5 344 11.3
2012-06-15 12:00:35 51°14.053 2°49.446 8.7 3.6 13 11.4
2012-06-15 12:01:35 51°14.106 2°49.503 47.9 4 46 11.9
2012-06-15 12:02:35 51°14.143 2°49.596 68.5 4.3 64 12
2012-06-15 12:03:35 51°14.173 2°49.701 71.1 4.3 66 11.7
2012-06-15 12:04:35 51°14.201 2°49.801 69.4 4.1 66 11.9
2012-06-15 12:05:35 51°14.232 2°49.896 65 4.1 61 11.8
2012-06-15 12:06:35 51°14.267 2°49.988 63.1 4 59 11.6
2012-06-15 12:07:35 51°14.296 2°50.082 71.9 3.9 68 11.8
2012-06-15 12:08:35 51°14.312 2°50.18 89.3 3.7 84 11.8
2012-06-15 12:09:35 51°14.313 2°50.275 102 3.5 95 11.5
2012-06-15 12:10:35 51°14.302 2°50.364 115.1 3.3 107 11.3
2012-06-15 12:11:35 51°14.277 2°50.439 140.7 3.1 134 11.2
2012-06-15 12:12:35 51°14.249 2°50.48 156.6 1.8 136 11.1
2012-06-15 12:13:35 51°14.234 2°50.51 157 1.1 128 11
2012-06-15 12:14:35 51°14.226 2°50.534 157.1 1 112 10.7
2012-06-15 12:15:35 51°14.212 2°50.579 119.1 2.7 103 10.5
2012-06-15 12:16:35 51°14.223 2°50.668 70.8 4.2 68 10.6
2012-06-15 12:17:35 51°14.247 2°50.784 78 4.9 77 10.6
2012-06-15 12:18:35 51°14.273 2°50.914 73.5 5.2 71 10.4
2012-06-15 12:19:35 51°14.305 2°51.045 70 5.4 66 10.6
2012-06-15 12:20:35 51°14.343 2°51.173 66.1 5.3 63 10.4
2012-06-15 12:21:35 51°14.381 2°51.3 67 5.4 65 10.6
2012-06-15 12:22:35 51°14.419 2°51.429 68.2 5.3 64 10.6
2012-06-15 12:23:35 51°14.453 2°51.562 73.2 5.3 69 10.5
2012-06-15 12:24:35 51°14.482 2°51.697 71.9 5.4 70 10.6
2012-06-15 12:25:35 51°14.516 2°51.829 68.9 5.4 65 10.6
2012-06-15 12:26:35 51°14.555 2°51.957 64.9 5.4 64 10.8
2012-06-15 12:27:35 51°14.593 2°52.085 68.2 5.4 67 11
2012-06-15 12:28:35 51°14.625 2°52.217 71.9 5.4 72 11
2012-06-15 12:29:35 51°14.655 2°52.351 72.5 5.3 70 10.8
2012-06-15 12:30:35 51°14.688 2°52.482 67.1 5.3 67 10.9
2012-06-15 12:31:35 51°14.726 2°52.61 66.1 5.3 64 10.9
2012-06-15 12:32:35 51°14.763 2°52.739 69 5.3 67 10.8
2012-06-15 12:33:35 51°14.793 2°52.872 73.5 5.3 72 10.8
2012-06-15 12:34:35 51°14.819 2°52.99 69.1 3.9 68 10.9
2012-06-15 12:35:35 51°14.841 2°53.068 59.7 2.8 62 10.9
2012-06-15 12:36:35 51°14.862 2°53.12 53.4 2.1 58 10.9
2012-06-15 12:37:35 51°14.88 2°53.162 51 1.7 52 10.9
2012-06-15 12:38:35 51°14.907 2°53.217 50.8 4.2 54 10.9
2012-06-15 12:39:35 51°14.916 2°53.379 95.4 8.2 96 10.7
2012-06-15 12:40:35 51°14.919 2°53.656 89.8 11.8 90 10.6
2012-06-15 12:41:35 51°14.899 2°53.975 101.2 12.4 98 10.4
2012-06-15 12:42:35 51°14.855 2°54.288 109.1 12.2 109 10.7
2012-06-15 12:43:35 51°14.78 2°54.585 117 12.1 116 11.7
2012-06-15 12:44:35 51°14.673 2°54.834 133.8 11.4 130 12.2
2012-06-15 12:45:35 51°14.541 2°55.025 142.8 10.3 143 12.3
2012-06-15 12:46:38 51°14.417 2°55.162 150 7.5 148 11.4
2012-06-15 12:47:39 51°14.303 2°55.257 153.5 7.9 152 -999
2012-06-15 12:48:38 51°14.184 2°55.359 154.4 8.2 155 -999
2012-06-15 12:49:39 51°14.064 2°55.449 156.7 7.4 155 -999
2012-06-15 12:50:38 51°13.968 2°55.525 156.1 6.6 153 -999
2012-06-15 12:51:38 51°13.863 2°55.603 152.7 7 149 11.6
2012-06-15 12:52:39 51°13.771 2°55.697 143.9 5.9 142 -999
2012-06-15 12:53:38 51°13.706 2°55.803 133.7 5.6 131 -999
2012-06-15 12:54:39 51°13.654 2°55.91 126.8 4.2 124 -999
2012-06-15 12:55:38 51°13.628 2°55.994 113.2 3.3 109 -999
2012-06-15 12:56:38 51°13.618 2°56.058 107.3 0.8 93 7.6
2012-06-15 12:57:38 51°13.615 2°56.066 119.5 0.2 127 7.9